Benito, Canada
Current Conditions -  °F | °C
As of 12:00 AM on Sunday 26 Oct 2014 (Local Time) from CYQV Reporting Station
Clear Clear  
Wind Chill: 29°   Ceiling: Unl
Heat Index: 36°   Visibility: 9mi
Dew Point: 28°   Wind: 8mph
Humidity: 75%   Direction: 120°ESE
Pressure: 29.88"   Gusts: NA
Location:  51.92°N, 101.55°W
Report Text: CYQV 260500Z AUTO 12007KT 9SM CLR 02/M02 A2988 RMK SLP137
Loading
Personal Weather Stations






























Interactive Weather Map
Tropical Storm Tracking
New forecast layout! Learn more

10-Day Weather Forecast

Advertisements
Track Severe Weather on mobile